createdAt,value
2016-05-10T00:00:17.830Z,55.23
2016-05-10T00:01:17.848Z,54.46
2016-05-10T00:02:17.897Z,54.85
2016-05-10T00:03:17.791Z,54.37
2016-05-10T00:04:17.982Z,54.75
2016-05-10T00:05:18.015Z,55.04
2016-05-10T00:06:18.049Z,54.85
2016-05-10T00:07:18.083Z,55.42
2016-05-10T00:08:18.132Z,54.75
2016-05-10T00:09:18.166Z,54.85
2016-05-10T00:10:18.201Z,54.56
2016-05-10T00:11:18.235Z,55.52
2016-05-10T00:12:18.311Z,55.13
2016-05-10T00:13:18.386Z,54.85
2016-05-10T00:14:18.461Z,54.75
2016-05-10T00:15:18.552Z,54.68
2016-05-10T00:16:18.471Z,54.88
2016-05-10T00:17:18.528Z,54.75
2016-05-10T00:18:18.749Z,54.88
2016-05-10T00:19:18.797Z,55.33
2016-05-10T00:20:18.690Z,55.23
2016-05-10T00:21:18.738Z,54.94
2016-05-10T00:22:18.952Z,55.71
2016-05-10T00:23:18.991Z,55.33
2016-05-10T00:24:18.875Z,55.9
2016-05-10T00:25:19.070Z,55.13
2016-05-10T00:26:18.953Z,55.23
2016-05-10T00:27:19.162Z,55.33
2016-05-10T00:28:19.198Z,55.45
2016-05-10T00:29:19.235Z,55.74
2016-05-10T00:30:19.301Z,55.55
2016-05-10T00:31:19.322Z,55.83
2016-05-10T00:32:19.356Z,55.35
2016-05-10T00:33:19.235Z,55.64
2016-05-10T00:34:19.425Z,55.74
2016-05-10T00:35:19.320Z,55.74
2016-05-10T00:36:19.511Z,56.57
2016-05-10T00:37:19.545Z,56.57
2016-05-10T00:38:19.439Z,57.53
2016-05-10T00:39:19.629Z,57.34
2016-05-10T00:40:19.679Z,57.34
2016-05-10T00:41:19.713Z,57.72
2016-05-10T00:42:19.747Z,57.63
2016-05-10T00:43:19.782Z,57.24
2016-05-10T00:44:20.252Z,57.15
2016-05-10T00:45:19.866Z,57.15
2016-05-10T00:46:19.899Z,57.06
2016-05-10T00:47:19.777Z,57.06
2016-05-10T00:48:19.983Z,56.67
2016-05-10T00:49:20.016Z,57.34
2016-05-10T00:50:20.066Z,57.72
2016-05-10T00:51:20.084Z,58.11
2016-05-10T00:52:20.118Z,58.3
2016-05-10T00:53:20.168Z,58.39
2016-05-10T00:54:20.202Z,58.2
2016-05-10T00:55:20.236Z,58.3
2016-05-10T00:56:20.317Z,58.78
2016-05-10T00:57:20.335Z,57.92
2016-05-10T00:58:20.197Z,58.3
2016-05-10T00:59:20.450Z,58.17
2016-05-10T01:00:20.421Z,58.39
2016-05-10T01:01:20.470Z,58.3
2016-05-10T01:02:20.348Z,58.01
2016-05-10T01:03:20.554Z,58.2
2016-05-10T01:04:20.573Z,58.59
2016-05-10T01:05:20.622Z,58.39
2016-05-10T01:06:20.656Z,58.84
2016-05-10T01:07:20.550Z,59.23
2016-05-10T01:08:20.739Z,59.9
2016-05-10T01:09:20.773Z,59.04
2016-05-10T01:10:20.651Z,59.33
2016-05-10T01:11:20.841Z,59.61
2016-05-10T01:12:20.891Z,59.61
2016-05-10T01:13:20.925Z,59.52
2016-05-10T01:14:21.116Z,59.52
2016-05-10T01:15:20.993Z,59.33
2016-05-10T01:16:21.027Z,59.9
2016-05-10T01:17:21.061Z,59.8
2016-05-10T01:18:21.126Z,59.8
2016-05-10T01:19:21.144Z,60.09
2016-05-10T01:20:21.178Z,59.71
2016-05-10T01:21:21.227Z,60
2016-05-10T01:22:21.262Z,59.71
2016-05-10T01:23:21.311Z,59.71
2016-05-10T01:24:21.330Z,59.61
2016-05-10T01:25:21.379Z,59.61
2016-05-10T01:26:21.413Z,59.9
2016-05-10T01:27:21.446Z,59.8
2016-05-10T01:28:21.512Z,59.83
2016-05-10T01:29:21.374Z,59.8
2016-05-10T01:30:21.579Z,59.61
2016-05-10T01:31:21.598Z,59.26
2016-05-10T01:32:21.632Z,59.55
2016-05-10T01:33:21.682Z,60.28
2016-05-10T01:34:21.715Z,60.67
2016-05-10T01:35:21.750Z,61.15
2016-05-10T01:36:21.800Z,61.02
2016-05-10T01:37:21.833Z,61.21
2016-05-10T01:38:21.867Z,61.15
2016-05-10T01:39:21.901Z,62.17
2016-05-10T01:40:21.936Z,61.79
2016-05-10T01:41:21.969Z,62.07
2016-05-10T01:42:22.019Z,62.36
2016-05-10T01:43:22.052Z,61.98
2016-05-10T01:44:22.102Z,61.5
2016-05-10T01:45:22.136Z,61.21
2016-05-10T01:46:22.155Z,61.34
2016-05-10T01:47:22.048Z,61.24
2016-05-10T01:48:22.238Z,61.15
2016-05-10T01:49:22.287Z,61.43
2016-05-10T01:50:22.165Z,62.1
2016-05-10T01:51:22.199Z,62.07
2016-05-10T01:52:22.405Z,61.88
2016-05-10T01:53:22.439Z,62.07
2016-05-10T01:54:22.473Z,62.07
2016-05-10T01:55:22.522Z,61.88
2016-05-10T01:56:22.556Z,61.88
2016-05-10T01:57:22.591Z,62.07
2016-05-10T01:58:22.624Z,62.46
2016-05-10T01:59:23.190Z,62.26
2016-05-10T02:00:22.692Z,61.98
2016-05-10T02:01:22.742Z,62.07
2016-05-10T02:02:22.775Z,62.17
2016-05-10T02:03:22.856Z,62.07
2016-05-10T02:04:22.843Z,62.1
2016-05-10T02:05:22.878Z,62.36
2016-05-10T02:06:22.959Z,62.36
2016-05-10T02:07:22.961Z,62.07
2016-05-10T02:08:22.994Z,63.03
2016-05-10T02:09:23.028Z,63.32
2016-05-10T02:10:23.062Z,62.93
2016-05-10T02:11:23.097Z,63.51
2016-05-10T02:12:23.131Z,63.51
2016-05-10T02:13:23.180Z,63.51
2016-05-10T02:14:23.073Z,63.22
2016-05-10T02:15:23.263Z,63.51
2016-05-10T02:16:23.297Z,63.89
2016-05-10T02:17:23.331Z,63.7
2016-05-10T02:18:23.209Z,63.99
2016-05-10T02:19:23.399Z,63.7
2016-05-10T02:20:23.277Z,64.09
2016-05-10T02:21:23.483Z,63.8
2016-05-10T02:22:23.516Z,63.32
2016-05-10T02:23:23.551Z,63.8
2016-05-10T02:24:23.429Z,63.51
2016-05-10T02:25:23.635Z,63.42
2016-05-10T02:26:23.668Z,63.8
2016-05-10T02:27:23.702Z,63.7
2016-05-10T02:28:23.752Z,64.09
2016-05-10T02:29:23.785Z,63.32
2016-05-10T02:30:23.820Z,63.32
2016-05-10T02:31:23.697Z,63.6
2016-05-10T02:32:23.887Z,64.18
2016-05-10T02:33:23.921Z,63.89
2016-05-10T02:34:23.971Z,63.89
2016-05-10T02:35:24.005Z,64.85
2016-05-10T02:36:24.039Z,64.82
2016-05-10T02:37:24.072Z,64.85
2016-05-10T02:38:24.106Z,64.43
2016-05-10T02:39:24.156Z,64.82
2016-05-10T02:40:24.190Z,64.63
2016-05-10T02:41:24.068Z,64.85
2016-05-10T02:42:24.273Z,64.66
2016-05-10T02:43:24.308Z,64.66
2016-05-10T02:44:24.341Z,64.56
2016-05-10T02:45:24.376Z,64.28
2016-05-10T02:46:24.409Z,64.28
2016-05-10T02:47:24.443Z,64.66
2016-05-10T02:48:24.494Z,64.47
2016-05-10T02:49:24.527Z,64.18
2016-05-10T02:50:24.560Z,63.8
2016-05-10T02:51:24.595Z,64.56
2016-05-10T02:52:24.629Z,64.56
2016-05-10T02:53:24.507Z,64.66
2016-05-10T02:54:24.713Z,64.56
2016-05-10T02:55:24.746Z,63.89
2016-05-10T02:56:24.780Z,64.09
2016-05-10T02:57:24.813Z,64.66
2016-05-10T02:58:24.848Z,64.28
2016-05-10T02:59:25.085Z,64.47
2016-05-10T03:00:24.931Z,64.56
2016-05-10T03:01:24.982Z,64.95
2016-05-10T03:02:24.999Z,64.37
2016-05-10T03:03:25.049Z,64.66
2016-05-10T03:04:25.082Z,64.76
2016-05-10T03:05:25.117Z,64.56
2016-05-10T03:06:25.151Z,64.56
2016-05-10T03:07:25.028Z,64.47
2016-05-10T03:08:25.234Z,64.28
2016-05-10T03:09:25.253Z,64.56
2016-05-10T03:10:25.302Z,64.56
2016-05-10T03:11:25.336Z,64.37
2016-05-10T03:12:25.386Z,64.18
2016-05-10T03:13:25.404Z,64.09
2016-05-10T03:14:25.656Z,64.85
2016-05-10T03:15:25.487Z,64.56
2016-05-10T03:16:25.521Z,64.66
2016-05-10T03:17:25.572Z,64.47
2016-05-10T03:18:25.449Z,64.66
2016-05-10T03:19:25.638Z,64.09
2016-05-10T03:20:25.673Z,64.18
2016-05-10T03:21:25.707Z,63.8
2016-05-10T03:22:25.755Z,64.18
2016-05-10T03:23:25.774Z,64.09
2016-05-10T03:24:25.824Z,63.7
2016-05-10T03:25:25.858Z,64.28
2016-05-10T03:26:25.892Z,63.99
2016-05-10T03:27:25.941Z,63.89
2016-05-10T03:28:25.976Z,63.99
2016-05-10T03:29:26.041Z,63.89
2016-05-10T03:30:25.887Z,64.66
2016-05-10T03:31:26.109Z,64.85
2016-05-10T03:32:26.127Z,64.15
2016-05-10T03:33:26.145Z,64.18
2016-05-10T03:34:26.210Z,63.89
2016-05-10T03:35:26.229Z,63.6
2016-05-10T03:36:26.262Z,63.89
2016-05-10T03:37:26.313Z,63.13
2016-05-10T03:38:26.345Z,63.7
2016-05-10T03:39:26.380Z,63.6
2016-05-10T03:40:26.414Z,63.6
2016-05-10T03:41:26.448Z,63.32
2016-05-10T03:42:26.482Z,63.99
2016-05-10T03:43:26.516Z,63.8
2016-05-10T03:44:26.940Z,63.89
2016-05-10T03:45:26.600Z,63.8
2016-05-10T03:46:26.633Z,63.8
2016-05-10T03:47:26.667Z,63.89
2016-05-10T03:48:26.717Z,63.42
2016-05-10T03:49:26.751Z,63.6
2016-05-10T03:50:26.785Z,63.8
2016-05-10T03:51:26.818Z,63.8
2016-05-10T03:52:26.696Z,64.28
2016-05-10T03:53:26.902Z,63.7
2016-05-10T03:54:26.936Z,63.8
2016-05-10T03:55:26.970Z,63.8
2016-05-10T03:56:27.020Z,63.51
2016-05-10T03:57:27.054Z,63.7
2016-05-10T03:58:27.087Z,63.42
2016-05-10T03:59:27.121Z,63.32
2016-05-10T04:00:27.155Z,63.13
2016-05-10T04:01:27.190Z,63.32
2016-05-10T04:02:27.223Z,63.6
2016-05-10T04:03:27.273Z,63.6
2016-05-10T04:04:27.306Z,63.22
2016-05-10T04:05:27.340Z,63.22
2016-05-10T04:06:27.374Z,62.65
2016-05-10T04:07:27.424Z,63.13
2016-05-10T04:08:27.302Z,63.13
2016-05-10T04:09:27.492Z,62.36
2016-05-10T04:10:27.526Z,62.1
2016-05-10T04:11:27.560Z,61.98
2016-05-10T04:12:27.594Z,62.07
2016-05-10T04:13:27.628Z,61.98
2016-05-10T04:14:27.693Z,61.98
2016-05-10T04:15:27.711Z,62.07
2016-05-10T04:16:27.745Z,62.01
2016-05-10T04:17:27.779Z,61.53
2016-05-10T04:18:27.813Z,61.34
2016-05-10T04:19:27.863Z,61.34
2016-05-10T04:20:27.896Z,60.86
2016-05-10T04:21:27.930Z,60.86
2016-05-10T04:22:27.964Z,60.57
2016-05-10T04:23:28.014Z,60.96
2016-05-10T04:24:28.048Z,60.96
2016-05-10T04:25:27.926Z,60.47
2016-05-10T04:26:27.960Z,60.19
2016-05-10T04:27:28.165Z,60.28
2016-05-10T04:28:28.199Z,60.19
2016-05-10T04:29:28.280Z,59.52
2016-05-10T04:30:28.268Z,60.19
2016-05-10T04:31:28.317Z,60.67
2016-05-10T04:32:28.351Z,60.47
2016-05-10T04:33:28.384Z,60.19
2016-05-10T04:34:28.419Z,59.9
2016-05-10T04:35:28.468Z,59.61
2016-05-10T04:36:28.502Z,59.52
2016-05-10T04:37:28.537Z,59.23
2016-05-10T04:38:28.570Z,59.16
2016-05-10T04:39:28.604Z,58.78
2016-05-10T04:40:28.653Z,58.97
2016-05-10T04:41:28.687Z,59.16
2016-05-10T04:42:28.565Z,58.78
2016-05-10T04:43:28.599Z,58.78
2016-05-10T04:44:28.868Z,58.39
2016-05-10T04:45:28.839Z,58.49
2016-05-10T04:46:28.872Z,58.69
2016-05-10T04:47:28.906Z,59.26
2016-05-10T04:48:28.800Z,59.16
2016-05-10T04:49:28.990Z,58.97
2016-05-10T04:50:29.025Z,59.45
2016-05-10T04:51:29.058Z,59.16
2016-05-10T04:52:29.107Z,59.13
2016-05-10T04:53:29.125Z,58.69
2016-05-10T04:54:29.019Z,58.2
2016-05-10T04:55:29.210Z,58.3
2016-05-10T04:56:29.087Z,58.39
2016-05-10T04:57:29.294Z,58.39
2016-05-10T04:58:29.343Z,58.49
2016-05-10T04:59:29.392Z,58.11
2016-05-10T05:00:29.411Z,57.72
2016-05-10T05:01:29.444Z,57.72
2016-05-10T05:02:29.479Z,57.53
2016-05-10T05:03:29.527Z,57.72
2016-05-10T05:04:29.546Z,57.65
2016-05-10T05:05:29.596Z,57.53
2016-05-10T05:06:29.473Z,58.49
2016-05-10T05:07:29.679Z,58.01
2016-05-10T05:08:29.713Z,57.92
2016-05-10T05:09:29.590Z,58.49
2016-05-10T05:10:29.782Z,58.59
2016-05-10T05:11:29.831Z,58.39
2016-05-10T05:12:29.864Z,57.82
2016-05-10T05:13:29.743Z,57.92
2016-05-10T05:14:29.932Z,57.63
2016-05-10T05:15:29.981Z,57.95
2016-05-10T05:16:30.017Z,56.6
2016-05-10T05:17:30.050Z,56.51
2016-05-10T05:18:30.100Z,56.51
2016-05-10T05:19:30.133Z,56.41
2016-05-10T05:20:30.167Z,56.51
2016-05-10T05:21:30.201Z,56.51
2016-05-10T05:22:30.094Z,55.55
2016-05-10T05:23:30.285Z,55.29
2016-05-10T05:24:30.163Z,56.02
2016-05-10T05:25:30.353Z,55.93
2016-05-10T05:26:30.402Z,55.38
2016-05-10T05:27:30.280Z,56.12
2016-05-10T05:28:30.485Z,55.64
2016-05-10T05:29:30.504Z,55.74
2016-05-10T05:30:30.554Z,55.83
2016-05-10T05:31:30.587Z,55.57
2016-05-10T05:32:30.622Z,55.57
2016-05-10T05:33:30.672Z,55.29
2016-05-10T05:34:30.705Z,54.61
2016-05-10T05:35:30.738Z,54.71
2016-05-10T05:36:30.788Z,55.96
2016-05-10T05:37:30.823Z,55.74
2016-05-10T05:38:30.856Z,55.67
2016-05-10T05:39:30.890Z,54.9
2016-05-10T05:40:30.940Z,54.33
2016-05-10T05:41:30.974Z,54.61
2016-05-10T05:42:31.023Z,54.8
2016-05-10T05:43:31.057Z,55
2016-05-10T05:44:31.092Z,54.52
2016-05-10T05:45:31.140Z,54.71
2016-05-10T05:46:31.175Z,53.87
2016-05-10T05:47:31.209Z,54.64
2016-05-10T05:48:31.258Z,54.33
2016-05-10T05:49:31.293Z,54.61
2016-05-10T05:50:31.326Z,54.04
2016-05-10T05:51:31.360Z,53.66
2016-05-10T05:52:31.409Z,53.97
2016-05-10T05:53:31.444Z,54.61
2016-05-10T05:54:31.477Z,54.61
2016-05-10T05:55:31.527Z,54.61
2016-05-10T05:56:31.561Z,54.71
2016-05-10T05:57:31.610Z,54.61
2016-05-10T05:58:31.472Z,53.3
2016-05-10T05:59:31.678Z,52.91
2016-05-10T06:00:31.713Z,52.72
2016-05-10T06:01:31.746Z,52.81
2016-05-10T06:02:31.640Z,53.3
2016-05-10T06:03:31.830Z,53.39
2016-05-10T06:04:31.864Z,53.97
2016-05-10T06:05:31.898Z,53.87
2016-05-10T06:06:31.947Z,53.39
2016-05-10T06:07:31.997Z,53.39
2016-05-10T06:08:32.016Z,53.97
2016-05-10T06:09:32.064Z,53.87
2016-05-10T06:10:32.098Z,53.87
2016-05-10T06:11:32.132Z,54.06
2016-05-10T06:12:32.182Z,53.39
2016-05-10T06:13:32.216Z,53.49
2016-05-10T06:14:32.282Z,53.49
2016-05-10T06:15:32.128Z,53.39
2016-05-10T06:16:32.333Z,52.43
2016-05-10T06:17:32.367Z,52.53
2016-05-10T06:18:32.417Z,53.58
2016-05-10T06:19:32.451Z,52.72
2016-05-10T06:20:32.485Z,52.62
2016-05-10T06:21:32.520Z,51.86
2016-05-10T06:22:32.553Z,52.81
2016-05-10T06:23:32.603Z,52.43
2016-05-10T06:24:32.636Z,51.95
2016-05-10T06:25:32.670Z,51.76
2016-05-10T06:26:32.719Z,51.79
2016-05-10T06:27:32.754Z,51.11
2016-05-10T06:28:32.803Z,50.44
2016-05-10T06:29:32.838Z,49.87
2016-05-10T06:30:32.871Z,50.82
2016-05-10T06:31:32.922Z,50.34
2016-05-10T06:32:32.954Z,50.05
2016-05-10T06:33:32.988Z,50.15
2016-05-10T06:34:32.882Z,50.15
2016-05-10T06:35:33.072Z,49.79
2016-05-10T06:36:32.949Z,49.51
2016-05-10T06:37:33.156Z,49.6
2016-05-10T06:38:33.033Z,50.05
2016-05-10T06:39:33.223Z,49.22
2016-05-10T06:40:33.273Z,49.51
2016-05-10T06:41:33.307Z,49.51
2016-05-10T06:42:33.341Z,49.12
2016-05-10T06:43:33.391Z,49.41
2016-05-10T06:44:33.424Z,49.31
2016-05-10T06:45:33.459Z,49.6
2016-05-10T06:46:33.509Z,49.6
2016-05-10T06:47:33.542Z,49.79
2016-05-10T06:48:33.576Z,49.12
2016-05-10T06:49:33.610Z,49.02
2016-05-10T06:50:33.659Z,49.41
2016-05-10T06:51:33.693Z,49.99
2016-05-10T06:52:33.728Z,49.69
2016-05-10T06:53:33.778Z,50.08
2016-05-10T06:54:33.811Z,50.18
2016-05-10T06:55:33.844Z,49.02
2016-05-10T06:56:33.738Z,49.89
2016-05-10T06:57:33.772Z,49.69
2016-05-10T06:58:33.806Z,49.89
2016-05-10T06:59:34.027Z,49.22
2016-05-10T07:00:34.061Z,49.31
2016-05-10T07:01:34.094Z,50.18
2016-05-10T07:02:34.130Z,49.41
2016-05-10T07:03:34.163Z,49.41
2016-05-10T07:04:34.213Z,49.51
2016-05-10T07:05:34.246Z,49.31
2016-05-10T07:06:34.280Z,49.53
2016-05-10T07:07:34.315Z,48.66
2016-05-10T07:08:34.363Z,47.89
2016-05-10T07:09:34.399Z,49.05
2016-05-10T07:10:34.448Z,48.85
2016-05-10T07:11:34.481Z,48.28
2016-05-10T07:12:34.515Z,47.8
2016-05-10T07:13:34.549Z,47.51
2016-05-10T07:14:34.787Z,47.8
2016-05-10T07:15:34.633Z,47.89
2016-05-10T07:16:34.667Z,48.47
2016-05-10T07:17:34.717Z,48.28
2016-05-10T07:18:34.765Z,47.7
2016-05-10T07:19:34.801Z,47.99
2016-05-10T07:20:34.834Z,47.63
2016-05-10T07:21:34.883Z,47.53
2016-05-10T07:22:34.901Z,47.53
2016-05-10T07:23:35.029Z,45.99
2016-05-10T07:24:34.986Z,46.38
2016-05-10T07:25:35.035Z,46.38
2016-05-10T07:26:35.069Z,45.13
2016-05-10T07:27:35.119Z,45.32
2016-05-10T07:28:35.152Z,45.53
2016-05-10T07:29:35.186Z,44.93
2016-05-10T07:30:35.235Z,44.76
2016-05-10T07:31:35.269Z,44.57
2016-05-10T07:32:35.303Z,44.09
2016-05-10T07:33:35.338Z,44.59
2016-05-10T07:34:35.388Z,43.82
2016-05-10T07:35:35.436Z,43.92
2016-05-10T07:36:35.471Z,43.63
2016-05-10T07:37:35.504Z,44.11
2016-05-10T07:38:35.554Z,43.82
2016-05-10T07:39:35.588Z,42.47
2016-05-10T07:40:35.621Z,42.69
2016-05-10T07:41:35.671Z,42.96
2016-05-10T07:42:35.705Z,42.38
2016-05-10T07:43:35.755Z,41.72
2016-05-10T07:44:35.852Z,41.46
2016-05-10T07:45:35.838Z,41.92
2016-05-10T07:46:35.873Z,41.44
2016-05-10T07:47:35.765Z,40.01
2016-05-10T07:48:35.940Z,40.51
2016-05-10T07:49:36.021Z,40.11
2016-05-10T07:50:36.040Z,38.87
2016-05-10T07:51:36.073Z,37.25
2016-05-10T07:52:36.107Z,35.74
2016-05-10T07:53:36.157Z,34.79
2016-05-10T07:54:36.207Z,34.79
2016-05-10T07:55:36.225Z,33.55
2016-05-10T07:56:36.275Z,33.28
2016-05-10T07:57:36.324Z,33.37
2016-05-10T07:58:36.358Z,34.42
2016-05-10T07:59:36.392Z,33.45
2016-05-10T08:00:36.457Z,33.18
2016-05-10T08:01:36.491Z,32.6
2016-05-10T08:02:36.525Z,32.79
2016-05-10T08:03:36.574Z,32.62
2016-05-10T08:04:36.608Z,32.33
2016-05-10T08:05:36.658Z,31.94
2016-05-10T08:06:36.708Z,31.94
2016-05-10T08:07:36.741Z,32.7
2016-05-10T08:08:36.775Z,32.12
2016-05-10T08:09:36.825Z,32.42
2016-05-10T08:10:36.874Z,31.94
2016-05-10T08:11:36.908Z,32.04
2016-05-10T08:12:36.958Z,32.02
2016-05-10T08:13:36.992Z,32.14
2016-05-10T08:14:37.057Z,31.07
2016-05-10T08:15:37.091Z,30.69
2016-05-10T08:16:37.140Z,29.24
2016-05-10T08:17:37.174Z,29.34
2016-05-10T08:18:37.224Z,28.87
2016-05-10T08:19:37.274Z,29.55
2016-05-10T08:20:37.307Z,30.79
2016-05-10T08:21:37.201Z,32.14
2016-05-10T08:22:37.251Z,32.1
2016-05-10T08:23:37.441Z,32.51
2016-05-10T08:24:37.490Z,32.41
2016-05-10T08:25:37.383Z,31.91
2016-05-10T08:26:37.589Z,30.57
2016-05-10T08:27:37.623Z,30.58
2016-05-10T08:28:37.501Z,30.58
2016-05-10T08:29:37.800Z,29.44
2016-05-10T08:30:38.709Z,29.36
2016-05-10T08:31:37.931Z,28.2
2016-05-10T08:32:37.855Z,28.13
2016-05-10T08:33:37.890Z,26.97
2016-05-10T08:34:37.939Z,27.46
2016-05-10T08:35:37.988Z,27.08
2016-05-10T08:36:38.022Z,27.07
2016-05-10T08:37:38.072Z,27.26
2016-05-10T08:38:38.121Z,26.6
2016-05-10T08:39:38.171Z,26.6
2016-05-10T08:40:38.205Z,26.89
2016-05-10T08:41:38.254Z,26.4
2016-05-10T08:42:38.304Z,27.1
2016-05-10T08:43:38.354Z,26.87
2016-05-10T08:44:38.419Z,26.87
2016-05-10T08:45:38.453Z,26.98
2016-05-10T08:46:38.487Z,28.23
2016-05-10T08:47:38.552Z,29.26
2016-05-10T08:48:38.430Z,29.26
2016-05-10T08:49:38.620Z,29.44
2016-05-10T08:50:38.685Z,29.46
2016-05-10T08:51:38.720Z,29.26
2016-05-10T08:52:38.613Z,29.71
2016-05-10T08:53:38.818Z,29.99
2016-05-10T08:54:38.868Z,29.13
2016-05-10T08:55:38.902Z,29.03
2016-05-10T08:56:38.951Z,27.7
2016-05-10T08:57:39.001Z,27.71
2016-05-10T08:58:39.050Z,26.95
2016-05-10T08:59:39.397Z,26.18
2016-05-10T09:00:39.150Z,26.1
2016-05-10T09:01:39.183Z,26.49
2016-05-10T09:02:39.249Z,27.54
2016-05-10T09:03:39.282Z,27.98
2016-05-10T09:04:39.316Z,27.71
2016-05-10T09:05:39.367Z,26.93
2016-05-10T09:06:39.416Z,26.28
2016-05-10T09:07:39.466Z,25.7
2016-05-10T09:08:39.516Z,25.23
2016-05-10T09:09:39.393Z,24.38
2016-05-10T09:10:39.599Z,24.67
2016-05-10T09:11:39.649Z,24.08
2016-05-10T09:12:40.260Z,23.42
2016-05-10T09:13:39.732Z,23.44
2016-05-10T09:14:39.782Z,24.02
2016-05-10T09:15:40.049Z,24.5
2016-05-10T09:16:39.880Z,24
2016-05-10T09:17:39.758Z,24.69
2016-05-10T09:18:39.860Z,23.61
2016-05-10T09:19:39.936Z,23.82
2016-05-10T09:20:40.199Z,24.22
2016-05-10T09:21:40.274Z,24.97
2016-05-10T09:22:40.365Z,24.57
2016-05-10T09:23:40.276Z,24.39
2016-05-10T09:24:40.512Z,23.7
2016-05-10T09:25:40.562Z,24.18
2016-05-10T09:26:40.626Z,24.56
2016-05-10T09:27:40.690Z,23
2016-05-10T09:28:40.731Z,24.87
2016-05-10T09:29:42.021Z,25.53
2016-05-10T09:30:40.840Z,25.14
2016-05-10T09:31:40.896Z,24.95
2016-05-10T09:32:40.950Z,25.43
2016-05-10T09:33:41.003Z,25.43
2016-05-10T09:34:41.038Z,25.23
2016-05-10T09:35:41.105Z,27.07
2016-05-10T09:36:41.141Z,28.3
2016-05-10T09:37:41.208Z,27.61
2016-05-10T09:38:41.243Z,26.75
2016-05-10T09:39:41.294Z,25.52
2016-05-10T09:40:41.343Z,24.76
2016-05-10T09:41:41.394Z,25.35
2016-05-10T09:42:41.430Z,25.82
2016-05-10T09:43:41.478Z,26.09
2016-05-10T09:44:41.529Z,26.18
2016-05-10T09:45:41.578Z,26.85
2016-05-10T09:46:41.645Z,26.27
2016-05-10T09:47:41.663Z,26.28
2016-05-10T09:48:41.712Z,27.06
2016-05-10T09:49:41.762Z,27.61
2016-05-10T09:50:41.811Z,28.19
2016-05-10T09:51:41.861Z,26.46
2016-05-10T09:52:41.911Z,26.46
2016-05-10T09:53:41.961Z,25.7
2016-05-10T09:54:41.853Z,24.55
2016-05-10T09:55:42.059Z,24.44
2016-05-10T09:56:42.094Z,24.35
2016-05-10T09:57:42.142Z,26.09
2016-05-10T09:58:42.193Z,25.21
2016-05-10T09:59:42.383Z,25.03
2016-05-10T10:00:42.276Z,24.84
2016-05-10T10:01:42.341Z,25.13
2016-05-10T10:02:42.375Z,24.83
2016-05-10T10:03:42.425Z,24.74
2016-05-10T10:04:42.474Z,24.45
2016-05-10T10:05:42.524Z,24.56
2016-05-10T10:06:42.574Z,25.32
2016-05-10T10:07:42.607Z,26.1
2016-05-10T10:08:42.658Z,26.28
2016-05-10T10:09:42.707Z,26.16
2016-05-10T10:10:42.757Z,25.3
2016-05-10T10:11:42.791Z,24.63
2016-05-10T10:12:42.855Z,23.88
2016-05-10T10:13:42.905Z,24.07
2016-05-10T10:14:42.985Z,23.87
2016-05-10T10:15:42.988Z,22.42
2016-05-10T10:16:43.038Z,22.42
2016-05-10T10:17:43.087Z,22.33
2016-05-10T10:18:43.137Z,23.87
2016-05-10T10:19:43.170Z,23.68
2016-05-10T10:20:43.221Z,24.74
2016-05-10T10:21:43.270Z,25.21
2016-05-10T10:22:43.320Z,26.18
2016-05-10T10:23:43.212Z,25.41
2016-05-10T10:24:43.404Z,24.83
2016-05-10T10:25:43.453Z,24.74
2016-05-10T10:26:43.503Z,25.53
2016-05-10T10:27:43.553Z,24.65
2016-05-10T10:28:43.601Z,25.51
2016-05-10T10:29:44.042Z,25.02
2016-05-10T10:30:43.685Z,24.74
2016-05-10T10:31:43.734Z,24.55
2016-05-10T10:32:43.800Z,24.74
2016-05-10T10:33:43.833Z,24.54
2016-05-10T10:34:43.883Z,24.45
2016-05-10T10:35:43.917Z,24.45
2016-05-10T10:36:43.982Z,26.2
2016-05-10T10:37:44.032Z,26.67
2016-05-10T10:38:44.066Z,26.54
2016-05-10T10:39:44.115Z,25.98
2016-05-10T10:40:44.181Z,25.51
2016-05-10T10:41:44.215Z,25.02
2016-05-10T10:42:44.249Z,25.31
2016-05-10T10:43:44.299Z,26.56
2016-05-10T10:44:44.363Z,26.65
2016-05-10T10:45:44.397Z,25.49
2016-05-10T10:46:44.447Z,26.46
2016-05-10T10:47:44.512Z,26.95
2016-05-10T10:48:44.545Z,26.56
2016-05-10T10:49:44.580Z,26.27
2016-05-10T10:50:44.630Z,26.17
2016-05-10T10:51:44.679Z,25.12
2016-05-10T10:52:44.729Z,25.42
2016-05-10T10:53:44.793Z,26.76
2016-05-10T10:54:44.812Z,26.07
2016-05-10T10:55:44.861Z,26.65
2016-05-10T10:56:44.911Z,25.6
2016-05-10T10:57:44.961Z,25.12
2016-05-10T10:58:45.011Z,24.74
2016-05-10T10:59:45.451Z,24.93
2016-05-10T11:00:45.109Z,24.55
2016-05-10T11:01:45.144Z,24.84
2016-05-10T11:02:45.193Z,25.89
2016-05-10T11:03:45.243Z,26.38
2016-05-10T11:04:45.292Z,25.7
2016-05-10T11:05:45.326Z,25.81
2016-05-10T11:06:45.375Z,25.62
2016-05-10T11:07:45.425Z,25.12
2016-05-10T11:08:45.458Z,26.49
2016-05-10T11:09:45.508Z,26.75
2016-05-10T11:10:45.558Z,27.15
2016-05-10T11:11:45.452Z,27.06
2016-05-10T11:12:45.657Z,27.04
2016-05-10T11:13:45.722Z,26.07
2016-05-10T11:14:45.600Z,25.99
2016-05-10T11:15:45.790Z,26.67
2016-05-10T11:16:45.840Z,26.86
2016-05-10T11:17:45.874Z,27.06
2016-05-10T11:18:45.924Z,27.06
2016-05-10T11:19:45.817Z,27.06
2016-05-10T11:20:46.023Z,27.72
2016-05-10T11:21:46.088Z,26.75
2016-05-10T11:22:45.951Z,27.24
2016-05-10T11:23:46.171Z,26.96
2016-05-10T11:24:46.206Z,26.95
2016-05-10T11:25:46.255Z,27.62
2016-05-10T11:26:46.148Z,26.54
2016-05-10T11:27:46.339Z,26.93
2016-05-10T11:28:46.404Z,26.64
2016-05-10T11:29:46.781Z,28.02
2016-05-10T11:30:46.487Z,27.61
2016-05-10T11:31:46.536Z,27.62
2016-05-10T11:32:46.586Z,28.29
2016-05-10T11:33:46.635Z,28.56
2016-05-10T11:34:46.669Z,28.19
2016-05-10T11:35:46.735Z,28.58
2016-05-10T11:36:46.769Z,27.72
2016-05-10T11:37:46.802Z,27.33
2016-05-10T11:38:46.852Z,27.53
2016-05-10T11:39:46.902Z,27.54
2016-05-10T11:40:46.795Z,27.73
2016-05-10T11:41:47.002Z,27.35
2016-05-10T11:42:47.035Z,27.61
2016-05-10T11:43:47.084Z,27.92
2016-05-10T11:44:46.978Z,27.82
2016-05-10T11:45:47.184Z,28.11
2016-05-10T11:46:47.233Z,26.95
2016-05-10T11:47:47.268Z,26.86
2016-05-10T11:48:47.316Z,26.96
2016-05-10T11:49:47.210Z,26.48
2016-05-10T11:50:47.416Z,27.07
2016-05-10T11:51:47.449Z,27.75
2016-05-10T11:52:47.499Z,27.83
2016-05-10T11:53:47.549Z,27.93
2016-05-10T11:54:47.442Z,26.38
2016-05-10T11:55:47.648Z,26.09
2016-05-10T11:56:47.682Z,26.96
2016-05-10T11:57:47.731Z,27.04
2016-05-10T11:58:47.625Z,26.56
2016-05-10T11:59:48.300Z,26.28
2016-05-10T12:00:47.864Z,26.09
2016-05-10T12:01:47.914Z,25.99
2016-05-10T12:02:47.963Z,25.81
2016-05-10T12:03:47.997Z,25.9
2016-05-10T12:04:48.047Z,26.78
2016-05-10T12:05:48.097Z,26.65
2016-05-10T12:06:48.147Z,26.85
2016-05-10T12:07:48.180Z,27.33
2016-05-10T12:08:48.245Z,28
2016-05-10T12:09:48.295Z,28.76
2016-05-10T12:10:48.173Z,27.5
2016-05-10T12:11:48.363Z,27.6
2016-05-10T12:12:48.413Z,28.47
2016-05-10T12:13:48.463Z,27.5
2016-05-10T12:14:48.511Z,27.51
2016-05-10T12:15:48.546Z,26.95
2016-05-10T12:16:48.596Z,25.99
2016-05-10T12:17:48.644Z,24.93
2016-05-10T12:18:48.694Z,26.5
2016-05-10T12:19:48.744Z,26.1
2016-05-10T12:20:48.777Z,24.95
2016-05-10T12:21:48.843Z,24.46
2016-05-10T12:22:48.877Z,25.04
2016-05-10T12:23:48.926Z,24.46
2016-05-10T12:24:48.993Z,24.37
2016-05-10T12:25:49.010Z,25.14
2016-05-10T12:26:48.903Z,25.7
2016-05-10T12:27:49.110Z,26.39
2016-05-10T12:28:49.159Z,26.46
2016-05-10T12:29:49.224Z,25.98
2016-05-10T12:30:49.259Z,25.79
2016-05-10T12:31:49.306Z,26.78
2016-05-10T12:32:49.342Z,25.9
2016-05-10T12:33:49.235Z,24.95
2016-05-10T12:34:49.440Z,24.57
2016-05-10T12:35:49.490Z,23.61
2016-05-10T12:36:49.525Z,23.22
2016-05-10T12:37:49.573Z,25.45
2016-05-10T12:38:49.639Z,25.03
2016-05-10T12:39:49.516Z,25.42
2016-05-10T12:40:49.722Z,25.34
2016-05-10T12:41:49.772Z,25.13
2016-05-10T12:42:49.822Z,25.52
2016-05-10T12:43:49.886Z,25.6
2016-05-10T12:44:49.921Z,26.67
2016-05-10T12:45:49.954Z,25.99
2016-05-10T12:46:50.067Z,26.57
2016-05-10T12:47:49.897Z,25.6
2016-05-10T12:48:49.963Z,25.42
2016-05-10T12:49:50.152Z,25.14
2016-05-10T12:50:50.046Z,24.66
2016-05-10T12:51:50.236Z,25.14
2016-05-10T12:52:50.286Z,24.55
2016-05-10T12:53:50.335Z,25.81
2016-05-10T12:54:50.384Z,24.73
2016-05-10T12:55:50.435Z,24.54
2016-05-10T12:56:50.484Z,23.38